Home   Weather   Camp Dallas   Past weeks
Flag for USA

Past Weather in Camp Dallas, Texas, USA — Yesterday and Last 2 Weeks

Currently: 49 °F. Clear. (Weather station: Dallas / Addison Airport, USA). See more current weather

Past Weather in Camp Dallas — Graph

°F

Camp Dallas Temperature Yesterday

Maximum temperature yesterday: 63 °F (at 2:47 pm)
Minimum temperature yesterday: 35 °F (at 2:55 am)
Average temperature yesterday: 48 °F

High & Low Weather Summary for the Past Weeks

 TemperatureHumidityPressure
High73 °F (Jan 13, 3:47 pm)100% (Jan 8, 9:35 pm)30.73 "Hg (Jan 8, 9:35 pm)
Low23 °F (Jan 7, 5:47 am)15% (Jan 13, 3:47 pm)29.73 "Hg (Jan 14, 4:50 pm)
Average47 °F51%30.19 "Hg
* Reported Jan 3 5:47 am — Jan 18 12:15 am, Camp Dallas. Weather by CustomWeather, © 2022

Note: Actual official high and low records may vary slightly from our data, if they occured in-between our weather recording intervals... More about our weather records

Camp Dallas Weather History for the Previous 24 Hours

Scroll right to see more
 ConditionsComfort  
Time TempWeatherWind HumidityBarometerVisibility
12:15 am
Tue, Jan 18
51 °FClear.10 mph39%30.02 "Hg10 mi
11:55 pm
Mon, Jan 17
52 °FClear.15 mph39%30.02 "Hg10 mi
11:35 pm52 °FClear.13 mph38%30.03 "Hg10 mi
11:15 pm52 °FClear.13 mph38%30.03 "Hg10 mi
10:55 pm53 °FClear.13 mph37%30.04 "Hg10 mi
10:35 pm52 °FClear.13 mph38%30.04 "Hg10 mi
10:15 pm53 °FClear.14 mph37%30.04 "Hg10 mi
9:55 pm53 °FClear.10 mph37%30.05 "Hg10 mi
9:35 pm53 °FClear.10 mph38%30.05 "Hg10 mi
9:15 pm52 °FClear.8 mph39%30.06 "Hg10 mi
8:55 pm53 °FClear.9 mph37%30.06 "Hg10 mi
8:35 pm53 °FClear.10 mph37%30.06 "Hg10 mi
8:15 pm53 °FClear.7 mph37%30.06 "Hg10 mi
7:47 pm54 °FClear.8 mph33%30.04 "Hg13 mi
5:47 pm57 °FClear.9 mph29%30.03 "Hg13 mi
4:47 pm63 °FSunny.9 mph22%30.05 "Hg13 mi
3:47 pm63 °FSunny.12 mph24%30.07 "Hg13 mi
2:47 pm63 °FSunny.7 mph24%30.08 "Hg13 mi
1:47 pm61 °FSunny.6 mph25%30.11 "Hg13 mi
12:47 pm59 °FSunny.7 mph29%30.15 "Hg13 mi
11:48 am57 °FSunny.6 mph31%30.19 "Hg13 mi
10:51 am55 °FSunny.7 mph33%30.21 "Hg13 mi
9:51 am48 °FSunny.N/A40%30.20 "Hg13 mi
8:47 am43 °FSunny.N/A49%30.18 "Hg13 mi
7:47 am36 °FSunny.3 mph60%30.16 "Hg13 mi
6:47 am36 °FClear.No wind65%30.15 "Hg13 mi
5:50 am36 °FClear.No wind65%30.13 "Hg13 mi
5:47 am36 °FClear.No wind65%30.13 "Hg13 mi
3:35 am36 °FClear.No wind74%30.15 "Hg10 mi
3:15 am36 °FClear.No wind73%30.14 "Hg10 mi
2:55 am35 °FClear.No wind80%30.14 "Hg10 mi
2:35 am36 °FClear.No wind79%30.14 "Hg10 mi
2:15 am36 °FClear.No wind78%30.14 "Hg10 mi
1:55 am36 °FClear.No wind78%30.14 "Hg10 mi
1:15 am37 °FClear.No wind75%30.14 "Hg10 mi
Weather by CustomWeather, © 2022

See weather overview